Impacts METAR Board
IDs:

KJFK - New York/Kennedy Int, NY, US

Updated at: 0900 UTC 18 Jan 2019
Potential Impact None Slight Moderate High
Time 17/21Z 17/22Z 17/23Z 18/00Z 18/01Z 18/02Z 18/03Z 18/04Z 18/05Z 18/06Z 18/07Z 18/08Z 18/09Z
Temp30 29 29 30 30 30 30 30 31 30 29 28 28
Dewpt12 13 11 14 15 16 15 16 17 20 24 26 27
Altim30.33 30.33 30.33 30.33 30.33 30.30 30.27 30.27 30.24 30.22 30.21 30.19 30.16
VIS10 10 10 10 10 10 10 10 10 8 4 5 3
CIG140 140 160 150 140 130 100 95 65 36 44 24 25
CoverOVCBKNBKNBKNOVCOVCOVCOVCOVCOVCOVCOVCOVC
FltCatVFRVFRVFRVFRVFRVFRVFRVFRVFRVFRMVFRMVFRMVFR
WX-------------------SN-SN-SN BR-SN BR
WDir140140130120607060705030104030
WSpd8 7 5 3 3 5 6 6 5 6 5 6 5
WGst-- -- -- -- -- -- -- -- -- -- -- -- --
Raw hourly METARs
KJFK 172051Z 14008KT 10SM FEW050 SCT120 BKN140 OVC250 M01/M11 A3033 RMK AO2 SLP270 T10111111 58015
KJFK 172151Z 14007KT 10SM FEW050 SCT120 BKN140 BKN250 M02/M11 A3033 RMK AO2 SLP271 T10171106
KJFK 172251Z 13005KT 10SM FEW120 BKN160 BKN250 M02/M12 A3033 RMK AO2 SLP270 T10171117
KJFK 172351Z 12003KT 10SM FEW120 BKN150 BKN250 M01/M10 A3033 RMK AO2 SLP271 T10111100 10006 21017 53002
KJFK 180051Z 06003KT 10SM FEW040 BKN140 OVC250 M01/M09 A3033 RMK AO2 SLP268 T10111094
KJFK 180151Z 07005KT 10SM FEW040 BKN130 OVC250 M01/M09 A3030 RMK AO2 SLP258 T10111089
KJFK 180251Z 06006KT 10SM FEW040 BKN100 OVC130 M01/M09 A3027 RMK AO2 SLP251 T10111094 58021
KJFK 180351Z 07006KT 10SM FEW080 BKN095 BKN110 OVC130 M01/M09 A3027 RMK AO2 SLP248 T10111089
KJFK 180451Z 05005KT 10SM FEW042 OVC065 M01/M08 A3024 RMK AO2 SLP241 T10061083 400111039
KJFK 180551Z 03006KT 8SM -SN OVC036 M01/M07 A3022 RMK AO2 SNB38 SLP232 931000 P0000 60000 T10111067 11006 21017 58018
KJFK 180651Z 01005KT 4SM -SN OVC044 M02/M04 A3021 RMK AO2 SLP228 P0000 T10171044
KJFK 180751Z 04006KT 5SM -SN BR BKN024 OVC045 M02/M03 A3019 RMK AO2 SLP223 P0000 T10221033
KJFK 180851Z 03005KT 3SM -SN BR OVC025 M02/M03 A3016 RMK AO2 SLP211 P0001 60001 T10221028 58021



Page loaded:  09:58 UTC  |   01:58 AM Pacific  |   02:58 AM Mountain  |   03:58 AM Central  |   04:58 AM Eastern

 

ADVISORIES

FORECASTS

FORECASTS

OBSERVATIONS

USER TOOLS

ABOUT US